»·PEaware :: N7GL KRNO-KSLC

N7GL :: KRNO-KSLC

FLIGHT INFORMATION

Flight Status: Arrived
Operator: Privately registered:
United States
More flights under this callsign
Pilot: Georg L. (13308)
Aircraft: BEECH AIRCRAFT SUPER KING AIR 350
(B350)
More flights by this aircraft type
Origin: KRNO Reno/Tahoe Intl
United States
Destination: KSLC Salt Lake City Intl
United States
More flights between these airports :: More routes between these airports
Route: +FMG V6 LLC V32 TCH
File this flight plan on PilotEdge
Remarks:
Altitude:
(Current/Filed)
29,000ft
Speed:
(Current/Filed)
297kts
Departed: 19-Oct-20 11:06 AM
Arrived: 19-Oct-20 12:28 PM
Distance/Time
Traveled:
366nm/1:21
Distance/Time
To Go:
Arrived

Flight Plot

Page will automatically refresh every two minutes.

Flight plan parsing failed; only flown route is shown


Map Options




Map Legend


Flown Route
Filed Route
Departure Airport
Arrival Airport
Navaid (VOR, NDB)
Fix

Horizontal Profiles

Position Reports

Time Latitude Longitude Heading Altitude Ground
Speed
19-Oct-20 10:46 39.501492 -119.764818 89 4406ft 0kts
19-Oct-20 10:47 39.501492 -119.764818 89 4406ft 0kts
19-Oct-20 10:48 39.501492 -119.764818 89 4406ft 0kts
19-Oct-20 10:49 39.501492 -119.764818 89 4406ft 0kts
19-Oct-20 10:50 39.501492 -119.764818 89 4406ft 0kts
19-Oct-20 10:51 39.501492 -119.764818 89 4406ft 0kts
19-Oct-20 10:52 39.501492 -119.764818 89 4406ft 0kts
19-Oct-20 10:53 39.501492 -119.764818 89 4406ft 0kts
19-Oct-20 10:54 39.501492 -119.764818 89 4406ft 0kts
19-Oct-20 10:55 39.501492 -119.764818 89 4406ft 0kts
19-Oct-20 10:56 39.501492 -119.764818 89 4406ft 0kts
19-Oct-20 10:57 39.501492 -119.764818 89 4406ft 0kts
19-Oct-20 10:58 39.501492 -119.764818 89 4406ft 0kts
19-Oct-20 10:59 39.501492 -119.764818 89 4406ft 0kts
19-Oct-20 11:00 39.501015 -119.764512 205 4406ft 4kts
19-Oct-20 11:01 39.501183 -119.765728 358 4406ft 8kts
19-Oct-20 11:02 39.506410 -119.765718 359 4410ft 26kts
19-Oct-20 11:03 39.512068 -119.765167 1 4416ft 20kts
19-Oct-20 11:04 39.513721 -119.766045 266 4418ft 7kts
19-Oct-20 11:05 39.492486 -119.766671 179 4905ft 137kts
19-Oct-20 11:06 39.446835 -119.767337 184 6324ft 190kts
19-Oct-20 11:07 39.414467 -119.735497 59 8141ft 193kts
19-Oct-20 11:08 39.460263 -119.701136 23 9919ft 194kts
19-Oct-20 11:09 39.507814 -119.671050 21 11845ft 189kts
19-Oct-20 11:10 39.547871 -119.626772 48 13499ft 199kts
19-Oct-20 11:11 39.580350 -119.568301 48 15265ft 200kts
19-Oct-20 11:12 39.612983 -119.509782 48 16955ft 201kts
19-Oct-20 11:13 39.645686 -119.451098 48 18437ft 201kts
19-Oct-20 11:14 39.678574 -119.391917 48 19761ft 203kts
19-Oct-20 11:15 39.711469 -119.332630 49 20995ft 204kts
19-Oct-20 11:16 39.744609 -119.272807 49 22285ft 204kts
19-Oct-20 11:17 39.777727 -119.212944 49 23634ft 205kts
19-Oct-20 11:18 39.811020 -119.152721 49 25047ft 205kts
19-Oct-20 11:19 39.844133 -119.092646 49 26449ft 204kts
19-Oct-20 11:20 39.877175 -119.032572 48 27680ft 204kts
19-Oct-20 11:21 39.910203 -118.972416 48 28774ft 205kts
19-Oct-20 11:22 39.944920 -118.909305 48 29259ft 234kts
19-Oct-20 11:23 39.984507 -118.836703 49 29238ft 256kts
19-Oct-20 11:24 40.027173 -118.758267 47 29234ft 273kts
19-Oct-20 11:26 40.072006 -118.675707 48 29230ft 284kts
19-Oct-20 11:27 40.118341 -118.590175 48 29236ft 292kts
19-Oct-20 11:28 40.163894 -118.500603 51 29235ft 300kts
19-Oct-20 11:29 40.209196 -118.408392 51 29236ft 303kts
19-Oct-20 11:30 40.255182 -118.315301 51 29233ft 306kts
19-Oct-20 11:31 40.301311 -118.221731 51 29236ft 306kts
19-Oct-20 11:32 40.347555 -118.127674 51 29237ft 307kts
19-Oct-20 11:33 40.393619 -118.033693 51 29238ft 307kts
19-Oct-20 11:34 40.439793 -117.939214 51 29243ft 307kts
19-Oct-20 11:35 40.485414 -117.844243 58 29237ft 311kts
19-Oct-20 11:36 40.501750 -117.731030 79 29252ft 320kts
19-Oct-20 11:37 40.511543 -117.614379 78 29248ft 321kts
19-Oct-20 11:38 40.521505 -117.497405 78 29248ft 322kts
19-Oct-20 11:39 40.531447 -117.379936 78 29250ft 324kts
19-Oct-20 11:40 40.541278 -117.262220 79 29244ft 325kts
19-Oct-20 11:41 40.550992 -117.144170 79 29244ft 325kts
19-Oct-20 11:41 40.559017 -117.045485 79 29248ft 326kts
19-Oct-20 11:43 40.571682 -116.907721 74 29247ft 324kts
19-Oct-20 11:43 40.587765 -116.811288 72 29247ft 324kts
19-Oct-20 11:45 40.610443 -116.676177 72 29250ft 325kts
19-Oct-20 11:45 40.626637 -116.579170 72 29247ft 325kts
19-Oct-20 11:46 40.645922 -116.462973 72 29250ft 326kts
19-Oct-20 11:47 40.665223 -116.345823 73 29249ft 327kts
19-Oct-20 11:48 40.684397 -116.228694 73 29243ft 327kts
19-Oct-20 11:49 40.703452 -116.111338 73 29248ft 327kts
19-Oct-20 11:50 40.722432 -115.994057 73 29257ft 327kts
19-Oct-20 11:51 40.741288 -115.876515 73 29247ft 328kts
19-Oct-20 11:52 40.758338 -115.758512 80 29243ft 332kts
19-Oct-20 11:53 40.758681 -115.635866 86 29257ft 335kts
19-Oct-20 11:54 40.757424 -115.513040 87 29271ft 335kts
19-Oct-20 11:55 40.756045 -115.389939 86 29291ft 336kts
19-Oct-20 11:56 40.754580 -115.266862 87 29290ft 337kts
19-Oct-20 11:57 40.752993 -115.143296 87 29273ft 337kts
19-Oct-20 11:58 40.751294 -115.020166 87 29273ft 338kts
19-Oct-20 11:59 40.749407 -114.895730 87 29281ft 339kts
19-Oct-20 12:00 40.747404 -114.771540 87 29298ft 340kts
19-Oct-20 12:01 40.745284 -114.647106 87 29324ft 340kts
19-Oct-20 12:02 40.742977 -114.522286 87 29357ft 341kts
19-Oct-20 12:03 40.740555 -114.397301 88 29394ft 341kts
19-Oct-20 12:04 40.738004 -114.271388 88 29230ft 347kts
19-Oct-20 12:05 40.735234 -114.143680 88 29093ft 347kts
19-Oct-20 12:06 40.732361 -114.017206 88 29092ft 344kts
19-Oct-20 12:07 40.729384 -113.890057 89 28618ft 359kts
19-Oct-20 12:08 40.726990 -113.753549 84 27033ft 379kts
19-Oct-20 12:09 40.736851 -113.616041 80 25363ft 376kts
19-Oct-20 12:10 40.747097 -113.479723 80 23692ft 372kts
19-Oct-20 12:11 40.757225 -113.343842 81 22030ft 374kts
19-Oct-20 12:12 40.767413 -113.205551 81 20349ft 381kts
19-Oct-20 12:13 40.777298 -113.068004 81 18633ft 374kts
19-Oct-20 12:14 40.780573 -112.931903 92 16907ft 366kts
19-Oct-20 12:15 40.774044 -112.800532 91 15186ft 353kts
19-Oct-20 12:16 40.768104 -112.672954 91 13494ft 345kts
19-Oct-20 12:17 40.762832 -112.549270 91 11797ft 330kts
19-Oct-20 12:18 40.758800 -112.433098 91 10995ft 300kts
19-Oct-20 12:19 40.755324 -112.322769 91 10995ft 301kts
19-Oct-20 12:20 40.752406 -112.211893 91 9599ft 298kts
19-Oct-20 12:21 40.751268 -112.105308 86 7790ft 286kts
19-Oct-20 12:22 40.807311 -112.051401 2 6019ft 273kts
19-Oct-20 12:23 40.874681 -112.042320 34 5956ft 222kts
19-Oct-20 12:24 40.874979 -111.980410 163 5770ft 166kts
19-Oct-20 12:25 40.833457 -111.961794 178 5275ft 149kts
19-Oct-20 12:26 40.796370 -111.962064 180 4240ft 118kts
19-Oct-20 12:27 40.785743 -111.960139 140 4232ft 0kts
19-Oct-20 12:28 40.782287 -111.959992 180 4232ft 23kts
19-Oct-20 12:29 40.779092 -111.959159 8 4232ft 6kts
19-Oct-20 12:30 40.779185 -111.958420 179 4232ft 0kts
19-Oct-20 12:31 40.779185 -111.958420 179 4232ft 0kts
19-Oct-20 12:32 40.779185 -111.958420 179 4232ft 0kts
19-Oct-20 12:33 40.779185 -111.958420 179 4232ft 0kts

Navigation Log

Ident Type
Flight plan parsing failed, navigation log unavailable